Terminal Aerodrome Forecast
Issued by NWS Wichita, KS

Home | Current Version | Previous Version | Text Only | Print | Product List | Glossary On
Versions: 1 2 3 4 5 6 7 8 9 10 11 12 13 14 15 16 17 18 19 20 21 22 23 24 25
000
FTUS43 KICT 240218 AAA
TAFICT
TAF AMD
KICT 240218Z 2402/2424 09014G21KT P6SM -RA FEW010 SCT050 BKN120
      TEMPO 2403/2406 BKN010
     FM240600 14008KT 6SM BR VCTS OVC006CB
     FM241500 15009KT 4SM BR OVC015
     FM241800 16012KT P6SM VCTS SCT020 OVC035CB=

USA.gov is the U.S. government's official web portal to all federal, state and local government web resources and services.